createdAt,value
2019-05-19T00:01:48.340Z,10.20
2019-05-19T00:15:15.657Z,10.10
2019-05-19T00:17:53.465Z,10.10
2019-05-19T00:20:23.586Z,10.00
2019-05-19T00:23:12.034Z,10.00
2019-05-19T00:25:45.161Z,10.00
2019-05-19T00:28:16.306Z,10.00
2019-05-19T00:30:49.002Z,10.00
2019-05-19T00:33:20.808Z,9.90
2019-05-19T00:35:51.921Z,9.90
2019-05-19T00:38:24.795Z,9.90
2019-05-19T00:41:02.532Z,10.00
2019-05-19T00:43:40.590Z,9.90
2019-05-19T00:46:35.099Z,10.00
2019-05-19T00:49:10.778Z,9.90
2019-05-19T00:51:41.308Z,9.90
2019-05-19T00:54:11.222Z,9.90
2019-05-19T00:59:30.711Z,9.90
2019-05-19T01:02:11.350Z,9.80
2019-05-19T01:04:41.500Z,9.80
2019-05-19T01:07:34.115Z,9.70
2019-05-19T01:09:43.146Z,9.70
2019-05-19T01:12:13.137Z,9.70
2019-05-19T01:14:44.952Z,9.70
2019-05-19T01:17:16.302Z,9.80
2019-05-19T01:19:55.665Z,9.80
2019-05-19T01:22:17.971Z,9.80
2019-05-19T01:25:23.965Z,9.80
2019-05-19T01:27:54.045Z,9.80
2019-05-19T01:30:24.412Z,9.80
2019-05-19T01:32:57.925Z,9.80
2019-05-19T01:35:50.584Z,9.90
2019-05-19T01:38:24.734Z,9.80
2019-05-19T01:40:56.081Z,9.90
2019-05-19T01:43:25.767Z,9.90
2019-05-19T01:45:55.808Z,9.90
2019-05-19T01:48:36.820Z,9.90
2019-05-19T01:51:06.644Z,9.90
2019-05-19T01:56:18.620Z,10.00
2019-05-19T01:58:49.343Z,9.90
2019-05-19T02:01:23.559Z,10.00
2019-05-19T02:03:58.158Z,9.90
2019-05-19T02:13:00.033Z,10.00
2019-05-19T02:15:30.105Z,10.00
2019-05-19T02:18:00.327Z,10.00
2019-05-19T02:20:33.074Z,10.00
2019-05-19T02:23:01.961Z,10.00
2019-05-19T02:25:34.782Z,10.00
2019-05-19T02:28:09.275Z,10.20
2019-05-19T02:30:39.389Z,10.30
2019-05-19T02:33:09.378Z,10.30
2019-05-19T02:35:39.317Z,10.30
2019-05-19T02:38:09.271Z,10.30
2019-05-19T02:40:43.691Z,10.50
2019-05-19T02:43:17.869Z,10.50
2019-05-19T02:45:48.184Z,10.40
2019-05-19T02:48:19.684Z,10.50
2019-05-19T02:50:53.107Z,10.50
2019-05-19T02:53:23.813Z,10.60
2019-05-19T02:55:56.908Z,10.60
2019-05-19T02:58:26.817Z,10.60
2019-05-19T03:00:57.189Z,10.50
2019-05-19T03:03:27.611Z,10.60
2019-05-19T03:06:03.627Z,10.50
2019-05-19T03:08:33.378Z,10.60
2019-05-19T03:11:06.916Z,10.50
2019-05-19T03:13:46.176Z,10.60
2019-05-19T03:16:19.977Z,10.60
2019-05-19T03:18:58.493Z,10.70
2019-05-19T03:21:40.480Z,10.70
2019-05-19T03:24:20.268Z,10.70
2019-05-19T03:26:59.204Z,10.70
2019-05-19T03:29:45.135Z,10.70
2019-05-19T03:35:58.956Z,10.90
2019-05-19T03:38:33.233Z,10.90
2019-05-19T03:41:03.250Z,10.90
2019-05-19T03:43:33.313Z,10.90
2019-05-19T03:46:07.995Z,10.90
2019-05-19T03:48:38.637Z,10.90
2019-05-19T03:51:29.115Z,10.90
2019-05-19T03:53:53.205Z,10.80
2019-05-19T03:56:38.273Z,10.90
2019-05-19T03:59:11.605Z,10.90
2019-05-19T04:01:44.292Z,10.90
2019-05-19T04:04:21.022Z,10.80
2019-05-19T04:07:11.881Z,10.90
2019-05-19T04:09:43.280Z,10.90
2019-05-19T04:12:15.998Z,10.90
2019-05-19T04:15:20.895Z,10.90
2019-05-19T04:17:56.642Z,10.90
2019-05-19T04:20:32.052Z,10.90
2019-05-19T04:23:14.002Z,10.90
2019-05-19T04:25:44.721Z,10.90
2019-05-19T04:28:21.018Z,10.90
2019-05-19T04:30:53.862Z,10.90
2019-05-19T04:33:29.998Z,11.00
2019-05-19T04:36:03.086Z,11.10
2019-05-19T04:38:48.494Z,11.10
2019-05-19T04:41:24.755Z,11.20
2019-05-19T04:48:44.469Z,11.30
2019-05-19T04:51:24.150Z,11.50
2019-05-19T04:54:09.998Z,11.50
2019-05-19T04:56:42.881Z,11.60
2019-05-19T04:59:20.373Z,11.70
2019-05-19T05:02:01.961Z,11.80
2019-05-19T05:04:35.562Z,11.90
2019-05-19T05:07:08.755Z,12.00
2019-05-19T05:09:53.520Z,12.10
2019-05-19T05:12:29.064Z,12.30
2019-05-19T05:15:05.639Z,12.40
2019-05-19T05:17:39.104Z,12.40
2019-05-19T05:20:21.595Z,12.50
2019-05-19T05:23:04.050Z,12.50
2019-05-19T05:25:37.446Z,12.60
2019-05-19T05:28:28.289Z,12.70
2019-05-19T05:31:17.502Z,12.70
2019-05-19T05:33:53.271Z,12.80
2019-05-19T05:36:35.371Z,12.80
2019-05-19T05:39:30.989Z,12.90
2019-05-19T05:42:13.644Z,13.00
2019-05-19T05:44:51.073Z,13.10
2019-05-19T05:47:27.663Z,13.10
2019-05-19T05:50:00.657Z,13.20
2019-05-19T05:52:42.800Z,13.20
2019-05-19T05:55:19.050Z,13.20
2019-05-19T05:57:52.718Z,13.20
2019-05-19T06:00:25.632Z,13.40
2019-05-19T06:02:55.701Z,13.20
2019-05-19T06:05:28.888Z,13.40
2019-05-19T06:08:04.767Z,13.40
2019-05-19T06:10:37.491Z,13.60
2019-05-19T06:13:10.572Z,13.70
2019-05-19T06:15:48.132Z,13.80
2019-05-19T06:18:27.786Z,13.80
2019-05-19T06:21:13.663Z,13.80
2019-05-19T06:23:46.547Z,13.90
2019-05-19T06:26:34.421Z,14.00
2019-05-19T06:29:04.344Z,14.00
2019-05-19T06:31:41.477Z,14.20
2019-05-19T06:34:11.810Z,14.20
2019-05-19T06:36:44.324Z,14.40
2019-05-19T06:39:17.267Z,14.40
2019-05-19T06:41:50.637Z,14.50
2019-05-19T06:44:48.636Z,14.50
2019-05-19T06:47:18.630Z,14.50
2019-05-19T06:49:48.717Z,14.60
2019-05-19T06:52:21.765Z,14.70
2019-05-19T06:54:51.778Z,14.80
2019-05-19T06:57:21.811Z,14.80
2019-05-19T06:59:54.269Z,14.80
2019-05-19T07:02:24.142Z,14.80
2019-05-19T07:04:54.100Z,15.00
2019-05-19T07:07:24.148Z,15.20
2019-05-19T07:09:58.728Z,15.50
2019-05-19T07:12:32.444Z,15.80
2019-05-19T07:15:02.360Z,15.80
2019-05-19T07:17:32.564Z,15.90
2019-05-19T07:20:05.568Z,15.90
2019-05-19T07:22:37.904Z,16.10
2019-05-19T07:25:10.711Z,16.30
2019-05-19T07:27:40.684Z,16.40
2019-05-19T07:30:10.554Z,16.60
2019-05-19T07:32:40.604Z,16.80
2019-05-19T07:35:10.606Z,17.60
2019-05-19T07:37:40.294Z,18.30
2019-05-19T07:40:11.188Z,18.20
2019-05-19T07:43:13.719Z,18.60
2019-05-19T07:45:43.488Z,19.40
2019-05-19T07:48:14.395Z,20.10
2019-05-19T07:50:44.416Z,20.50
2019-05-19T07:53:14.292Z,22.20
2019-05-19T07:55:44.207Z,22.00
2019-05-19T07:58:13.713Z,22.60
2019-05-19T08:00:43.448Z,21.80
2019-05-19T08:03:13.411Z,22.20
2019-05-19T08:05:43.505Z,21.60
2019-05-19T08:08:13.427Z,23.90
2019-05-19T08:10:43.428Z,23.10
2019-05-19T08:13:15.816Z,23.80
2019-05-19T08:15:45.535Z,24.40
2019-05-19T08:18:18.228Z,22.90
2019-05-19T08:20:52.365Z,24.50
2019-05-19T08:23:22.122Z,23.10
2019-05-19T08:25:51.888Z,24.30
2019-05-19T08:28:24.582Z,23.70
2019-05-19T08:30:57.350Z,24.40
2019-05-19T08:33:27.268Z,26.30
2019-05-19T08:35:59.842Z,26.30
2019-05-19T08:38:33.009Z,27.00
2019-05-19T08:41:02.925Z,27.90
2019-05-19T08:43:33.091Z,28.00
2019-05-19T08:56:24.556Z,29.20
2019-05-19T08:58:54.234Z,29.50
2019-05-19T09:01:24.297Z,29.10
2019-05-19T09:03:56.942Z,29.60
2019-05-19T09:06:28.476Z,30.40
2019-05-19T09:08:58.267Z,29.10
2019-05-19T09:11:28.308Z,29.40
2019-05-19T09:13:57.950Z,28.70
2019-05-19T09:16:27.500Z,30.00
2019-05-19T09:18:57.472Z,29.60
2019-05-19T09:21:27.812Z,28.60
2019-05-19T09:24:00.431Z,28.00
2019-05-19T09:26:30.597Z,28.40
2019-05-19T09:29:00.346Z,28.60
2019-05-19T09:31:33.445Z,28.90
2019-05-19T09:34:03.168Z,29.20
2019-05-19T09:36:33.110Z,29.20
2019-05-19T09:39:06.107Z,29.30
2019-05-19T09:41:39.984Z,28.80
2019-05-19T09:44:11.990Z,28.50
2019-05-19T09:46:50.795Z,27.80
2019-05-19T09:49:33.735Z,26.80
2019-05-19T09:52:09.968Z,26.50
2019-05-19T09:54:45.156Z,26.30
2019-05-19T09:57:19.476Z,25.90
2019-05-19T09:59:49.441Z,25.80
2019-05-19T10:02:21.178Z,25.20
2019-05-19T10:04:58.508Z,25.70
2019-05-19T10:07:31.814Z,25.60
2019-05-19T10:10:06.731Z,26.60
2019-05-19T10:14:16.610Z,27.10
2019-05-19T10:15:19.748Z,27.40
2019-05-19T10:17:53.224Z,27.20
2019-05-19T10:20:23.833Z,27.70
2019-05-19T10:22:54.102Z,27.90
2019-05-19T10:25:33.052Z,27.10
2019-05-19T10:28:11.039Z,26.80
2019-05-19T10:30:44.953Z,26.80
2019-05-19T10:33:52.390Z,26.70
2019-05-19T10:36:55.145Z,26.90
2019-05-19T10:39:24.911Z,27.00
2019-05-19T10:41:55.275Z,26.80
2019-05-19T10:44:28.002Z,26.80
2019-05-19T10:46:58.082Z,26.70
2019-05-19T10:49:28.091Z,26.90
2019-05-19T10:51:58.522Z,26.90
2019-05-19T10:54:28.617Z,26.90
2019-05-19T10:57:01.392Z,26.50
2019-05-19T10:59:31.131Z,26.60
2019-05-19T11:02:01.043Z,25.70
2019-05-19T11:04:40.011Z,25.80
2019-05-19T11:07:09.987Z,25.40
2019-05-19T11:09:39.840Z,25.00
2019-05-19T11:12:09.674Z,24.60
2019-05-19T11:14:39.218Z,23.40
2019-05-19T11:17:09.278Z,24.20
2019-05-19T11:19:42.734Z,24.30
2019-05-19T11:22:12.751Z,23.60
2019-05-19T11:24:45.164Z,23.60
2019-05-19T11:27:14.829Z,23.80
2019-05-19T11:29:44.851Z,24.30
2019-05-19T11:32:15.174Z,25.00
2019-05-19T11:34:44.881Z,25.60
2019-05-19T11:37:19.919Z,25.50
2019-05-19T11:39:49.805Z,25.10
2019-05-19T11:42:19.749Z,25.10
2019-05-19T11:44:49.359Z,24.60
2019-05-19T11:47:19.243Z,24.60
2019-05-19T11:49:51.951Z,24.40
2019-05-19T11:52:21.624Z,24.20
2019-05-19T11:57:40.234Z,24.30
2019-05-19T12:00:10.039Z,24.20
2019-05-19T12:02:48.115Z,24.30
2019-05-19T12:05:17.834Z,24.10
2019-05-19T12:07:47.228Z,23.80
2019-05-19T12:10:16.602Z,24.10
2019-05-19T12:12:45.963Z,24.10
2019-05-19T12:15:15.461Z,24.40
2019-05-19T12:17:44.837Z,24.30
2019-05-19T12:20:14.260Z,24.70
2019-05-19T12:22:43.578Z,24.80
2019-05-19T12:25:12.880Z,24.70
2019-05-19T12:27:42.294Z,24.70
2019-05-19T12:30:12.187Z,24.50
2019-05-19T12:32:41.499Z,24.40
2019-05-19T12:35:10.997Z,24.00
2019-05-19T12:37:40.486Z,24.00
2019-05-19T12:40:09.799Z,23.80
2019-05-19T12:42:39.191Z,23.60
2019-05-19T12:45:08.531Z,23.40
2019-05-19T12:47:37.747Z,23.40
2019-05-19T12:50:07.776Z,22.90
2019-05-19T12:52:37.271Z,22.70
2019-05-19T12:55:06.532Z,22.60
2019-05-19T12:57:35.763Z,22.50
2019-05-19T13:00:04.961Z,22.40
2019-05-19T13:02:34.192Z,22.20
2019-05-19T13:05:05.485Z,21.90
2019-05-19T13:07:34.251Z,21.60
2019-05-19T13:10:03.476Z,21.60
2019-05-19T13:12:32.645Z,21.50
2019-05-19T13:15:01.805Z,21.30
2019-05-19T13:17:31.036Z,21.10
2019-05-19T13:20:00.249Z,20.60
2019-05-19T13:22:29.395Z,20.70
2019-05-19T13:24:58.633Z,20.50
2019-05-19T13:27:27.800Z,20.60
2019-05-19T13:29:56.974Z,20.60
2019-05-19T13:32:26.069Z,20.70
2019-05-19T13:34:55.230Z,20.80
2019-05-19T13:37:24.390Z,21.30
2019-05-19T13:39:53.616Z,21.90
2019-05-19T13:42:22.852Z,21.70
2019-05-19T13:44:51.968Z,21.50
2019-05-19T13:47:21.192Z,21.50
2019-05-19T13:49:50.376Z,21.80
2019-05-19T13:52:19.598Z,21.90
2019-05-19T13:54:48.737Z,21.10
2019-05-19T13:57:17.836Z,20.50
2019-05-19T13:59:46.942Z,20.20
2019-05-19T14:02:16.205Z,19.50
2019-05-19T14:04:45.423Z,19.00
2019-05-19T14:07:14.642Z,18.80
2019-05-19T14:09:43.845Z,18.50
2019-05-19T14:12:12.977Z,18.60
2019-05-19T14:14:42.219Z,18.20
2019-05-19T14:17:11.389Z,18.00
2019-05-19T14:19:40.559Z,17.90
2019-05-19T14:22:09.693Z,18.00
2019-05-19T14:24:38.872Z,17.70
2019-05-19T14:27:08.028Z,17.70
2019-05-19T14:29:37.145Z,17.60
2019-05-19T14:32:06.286Z,17.40
2019-05-19T14:34:35.513Z,17.10
2019-05-19T14:37:04.661Z,16.70
2019-05-19T14:39:33.781Z,16.80
2019-05-19T14:42:06.639Z,16.90
2019-05-19T14:44:35.836Z,17.00
2019-05-19T14:47:05.000Z,17.10
2019-05-19T14:49:34.124Z,17.10
2019-05-19T14:52:03.312Z,17.20
2019-05-19T14:54:32.511Z,17.20
2019-05-19T14:57:01.693Z,17.30
2019-05-19T14:59:30.917Z,17.40
2019-05-19T15:02:00.055Z,17.60
2019-05-19T15:04:29.195Z,17.70
2019-05-19T15:06:58.286Z,17.60
2019-05-19T15:09:27.452Z,17.80
2019-05-19T15:11:56.595Z,18.00
2019-05-19T15:14:25.785Z,18.30
2019-05-19T15:16:54.924Z,19.00
2019-05-19T15:19:24.091Z,19.20
2019-05-19T15:21:53.404Z,18.50
2019-05-19T15:24:22.610Z,18.90
2019-05-19T15:26:51.800Z,18.90
2019-05-19T15:29:21.754Z,19.00
2019-05-19T15:31:51.104Z,19.10
2019-05-19T15:34:20.288Z,19.20
2019-05-19T15:36:49.501Z,19.60
2019-05-19T15:39:18.687Z,19.40
2019-05-19T15:41:47.864Z,19.00
2019-05-19T15:44:17.002Z,19.20
2019-05-19T15:46:46.177Z,19.50
2019-05-19T15:49:15.421Z,19.60
2019-05-19T15:51:59.176Z,19.40
2019-05-19T15:54:15.456Z,19.00
2019-05-19T15:56:44.711Z,18.60
2019-05-19T15:59:13.837Z,18.40
2019-05-19T16:01:43.020Z,18.90
2019-05-19T16:04:12.212Z,18.90
2019-05-19T16:06:41.386Z,19.00
2019-05-19T16:09:10.636Z,18.80
2019-05-19T16:11:39.753Z,18.90
2019-05-19T16:14:08.872Z,18.90
2019-05-19T16:16:37.979Z,18.80
2019-05-19T16:19:07.176Z,18.60
2019-05-19T16:21:36.376Z,18.50
2019-05-19T16:24:05.512Z,18.50
2019-05-19T16:26:34.684Z,18.50
2019-05-19T16:29:03.860Z,18.40
2019-05-19T16:31:33.105Z,17.80
2019-05-19T16:34:02.352Z,17.80
2019-05-19T16:36:31.610Z,17.40
2019-05-19T16:39:00.720Z,17.50
2019-05-19T16:41:29.998Z,17.50
2019-05-19T16:43:59.284Z,17.40
2019-05-19T16:46:28.468Z,17.20
2019-05-19T16:48:57.627Z,17.10
2019-05-19T16:51:26.873Z,17.10
2019-05-19T16:53:58.637Z,16.90
2019-05-19T16:56:27.868Z,16.70
2019-05-19T16:58:57.125Z,16.40
2019-05-19T17:01:26.472Z,16.30
2019-05-19T17:03:55.608Z,16.40
2019-05-19T17:06:24.684Z,16.30
2019-05-19T17:08:53.824Z,16.10
2019-05-19T17:11:23.000Z,15.80
2019-05-19T17:13:53.506Z,15.80
2019-05-19T17:16:22.756Z,15.70
2019-05-19T17:18:51.901Z,15.40
2019-05-19T17:21:21.003Z,15.30
2019-05-19T17:23:50.545Z,15.30
2019-05-19T17:26:19.766Z,15.30
2019-05-19T17:29:00.275Z,15.30
2019-05-19T17:31:20.081Z,15.00
2019-05-19T17:33:49.203Z,15.20
2019-05-19T17:36:18.369Z,15.10
2019-05-19T17:38:47.442Z,14.90
2019-05-19T17:41:16.654Z,15.10
2019-05-19T17:43:47.736Z,15.10
2019-05-19T17:46:16.935Z,15.20
2019-05-19T17:48:46.162Z,15.10
2019-05-19T17:51:15.401Z,15.10
2019-05-19T17:53:44.576Z,15.00
2019-05-19T17:56:13.821Z,15.00
2019-05-19T17:58:43.003Z,14.90
2019-05-19T18:01:12.292Z,15.00
2019-05-19T18:03:41.444Z,15.00
2019-05-19T18:06:10.648Z,15.00
2019-05-19T18:08:39.856Z,14.90
2019-05-19T18:11:08.952Z,14.80
2019-05-19T18:13:38.096Z,14.80
2019-05-19T18:16:07.238Z,14.80
2019-05-19T18:18:36.475Z,14.70
2019-05-19T18:21:05.697Z,14.70
2019-05-19T18:23:34.848Z,14.50
2019-05-19T18:26:07.058Z,14.40
2019-05-19T18:28:35.035Z,14.40
2019-05-19T18:31:04.266Z,14.40
2019-05-19T18:33:33.464Z,14.40
2019-05-19T18:36:02.652Z,14.40
2019-05-19T18:38:31.878Z,14.40
2019-05-19T18:41:01.104Z,14.30
2019-05-19T18:43:30.346Z,14.40
2019-05-19T18:45:59.540Z,14.30
2019-05-19T18:48:28.666Z,14.20
2019-05-19T18:50:57.825Z,14.30
2019-05-19T18:53:27.011Z,14.20
2019-05-19T18:55:56.204Z,14.10
2019-05-19T18:58:25.320Z,14.10
2019-05-19T19:00:54.596Z,14.10
2019-05-19T19:03:23.778Z,14.00
2019-05-19T19:05:53.028Z,14.00
2019-05-19T19:08:22.512Z,13.90
2019-05-19T19:10:51.605Z,13.90
2019-05-19T19:13:20.812Z,13.80
2019-05-19T19:15:50.140Z,13.80
2019-05-19T19:18:19.243Z,13.70
2019-05-19T19:20:48.698Z,13.70
2019-05-19T19:23:19.496Z,13.70
2019-05-19T19:25:48.700Z,13.70
2019-05-19T19:28:17.820Z,13.70
2019-05-19T19:30:47.203Z,13.70
2019-05-19T19:33:16.296Z,13.70
2019-05-19T19:35:45.557Z,13.70
2019-05-19T19:38:14.874Z,13.70
2019-05-19T19:40:44.027Z,13.70
2019-05-19T19:43:13.150Z,13.70
2019-05-19T19:45:42.368Z,13.70
2019-05-19T19:48:11.485Z,13.70
2019-05-19T19:50:40.577Z,13.70
2019-05-19T19:53:09.716Z,13.70
2019-05-19T19:55:38.955Z,13.80
2019-05-19T19:58:08.080Z,13.70
2019-05-19T20:00:41.907Z,13.70
2019-05-19T20:03:11.140Z,13.60
2019-05-19T20:05:40.368Z,13.60
2019-05-19T20:08:09.586Z,13.60
2019-05-19T20:10:38.680Z,13.60
2019-05-19T20:13:07.820Z,13.50
2019-05-19T20:15:37.920Z,13.50
2019-05-19T20:18:07.076Z,13.50
2019-05-19T20:20:36.236Z,13.50
2019-05-19T20:23:05.353Z,13.50
2019-05-19T20:25:37.155Z,13.50
2019-05-19T20:28:05.385Z,13.40
2019-05-19T20:30:36.468Z,13.40
2019-05-19T20:33:05.387Z,13.30
2019-05-19T20:35:34.604Z,13.30
2019-05-19T20:38:03.785Z,13.30
2019-05-19T20:40:32.944Z,13.30
2019-05-19T20:43:02.202Z,13.20
2019-05-19T20:45:31.443Z,13.20
2019-05-19T20:48:00.611Z,13.20
2019-05-19T20:50:32.829Z,13.20
2019-05-19T20:53:02.230Z,13.10
2019-05-19T20:55:31.368Z,13.10
2019-05-19T20:58:00.584Z,13.10
2019-05-19T21:00:29.767Z,13.00
2019-05-19T21:02:58.984Z,12.90
2019-05-19T21:05:28.084Z,13.00
2019-05-19T21:07:57.304Z,12.90
2019-05-19T21:10:26.534Z,12.90
2019-05-19T21:12:57.629Z,12.90
2019-05-19T21:15:26.541Z,12.90
2019-05-19T21:17:55.772Z,13.00
2019-05-19T21:20:26.059Z,13.00
2019-05-19T21:22:55.310Z,12.90
2019-05-19T21:25:24.662Z,12.80
2019-05-19T21:27:53.798Z,12.80
2019-05-19T21:30:22.976Z,12.70
2019-05-19T21:32:52.068Z,12.80
2019-05-19T21:35:21.228Z,12.70
2019-05-19T21:37:50.361Z,12.70
2019-05-19T21:40:19.628Z,12.70
2019-05-19T21:42:48.783Z,12.80
2019-05-19T21:45:18.000Z,12.70
2019-05-19T21:47:47.283Z,12.50
2019-05-19T21:50:16.472Z,12.60
2019-05-19T21:52:45.656Z,12.60
2019-05-19T21:55:14.836Z,12.60
2019-05-19T21:57:44.180Z,12.60
2019-05-19T22:00:15.543Z,12.60
2019-05-19T22:02:44.688Z,12.60
2019-05-19T22:05:13.807Z,12.60
2019-05-19T22:07:53.503Z,12.60
2019-05-19T22:10:22.725Z,12.60
2019-05-19T22:12:51.899Z,12.60
2019-05-19T22:15:21.077Z,12.70
2019-05-19T22:17:50.200Z,12.50
2019-05-19T22:20:19.324Z,12.50
2019-05-19T22:22:48.476Z,12.60
2019-05-19T22:25:17.620Z,12.50
2019-05-19T22:27:46.806Z,12.60
2019-05-19T22:30:16.018Z,12.50
2019-05-19T22:32:45.141Z,12.50
2019-05-19T22:35:14.291Z,12.50
2019-05-19T22:37:43.412Z,12.60
2019-05-19T22:40:12.768Z,12.60
2019-05-19T22:42:41.972Z,12.60
2019-05-19T22:45:11.164Z,12.60
2019-05-19T22:47:40.256Z,12.60
2019-05-19T22:50:09.990Z,12.60
2019-05-19T22:52:39.180Z,12.60
2019-05-19T22:55:08.802Z,12.60
2019-05-19T22:57:37.934Z,12.60
2019-05-19T23:00:08.100Z,12.60
2019-05-19T23:02:37.235Z,12.60
2019-05-19T23:05:06.725Z,12.60
2019-05-19T23:07:35.950Z,12.60
2019-05-19T23:10:05.495Z,12.60
2019-05-19T23:12:34.829Z,12.60
2019-05-19T23:15:04.197Z,12.60
2019-05-19T23:17:33.356Z,12.60
2019-05-19T23:20:02.495Z,12.60
2019-05-19T23:22:31.669Z,12.60
2019-05-19T23:25:00.867Z,12.60
2019-05-19T23:27:30.056Z,12.60
2019-05-19T23:29:59.176Z,12.60
2019-05-19T23:32:28.333Z,12.60
2019-05-19T23:34:57.652Z,12.60
2019-05-19T23:37:26.796Z,12.60
2019-05-19T23:39:55.899Z,12.60
2019-05-19T23:42:26.347Z,12.50
2019-05-19T23:44:58.080Z,12.50
2019-05-19T23:47:27.240Z,12.60
2019-05-19T23:49:56.445Z,12.60
2019-05-19T23:52:25.545Z,12.50
2019-05-19T23:54:54.637Z,12.60
2019-05-19T23:57:23.756Z,12.60
2019-05-19T23:59:52.875Z,12.60
